createdAt,value
2023-05-21T00:03:30.934Z,11.93
2023-05-21T00:08:34.215Z,10.38
2023-05-21T00:13:36.093Z,11.00
2023-05-21T00:18:39.492Z,10.07
2023-05-21T00:23:42.791Z,10.40
2023-05-21T00:28:44.609Z,11.50
2023-05-21T00:33:46.474Z,10.82
2023-05-21T00:38:48.416Z,11.75
2023-05-21T00:43:50.326Z,11.02
2023-05-21T00:48:52.808Z,11.55
2023-05-21T00:53:54.817Z,11.07
2023-05-21T00:58:57.818Z,10.57
2023-05-21T01:04:01.818Z,11.35
2023-05-21T01:09:06.501Z,11.15
2023-05-21T01:14:11.154Z,11.30
2023-05-21T01:19:17.174Z,11.15
2023-05-21T01:24:19.569Z,10.88
2023-05-21T01:29:21.805Z,11.48
2023-05-21T01:34:28.565Z,12.07
2023-05-21T01:39:38.937Z,11.05
2023-05-21T01:44:41.285Z,11.60
2023-05-21T01:49:43.477Z,11.55
2023-05-21T01:54:45.183Z,10.88
2023-05-21T01:59:47.896Z,10.98
2023-05-21T02:04:50.157Z,13.00
2023-05-21T02:09:52.161Z,11.80
2023-05-21T02:14:54.647Z,12.75
2023-05-21T02:19:56.444Z,12.07
2023-05-21T02:24:59.279Z,11.38
2023-05-21T02:30:05.828Z,10.95
2023-05-21T02:35:08.828Z,12.77
2023-05-21T02:40:11.236Z,11.55
2023-05-21T02:45:13.791Z,11.30
2023-05-21T02:50:15.575Z,12.65
2023-05-21T02:55:17.783Z,12.43
2023-05-21T03:00:19.566Z,12.77
2023-05-21T03:05:21.577Z,11.88
2023-05-21T03:10:26.401Z,12.70
2023-05-21T03:15:33.334Z,12.32
2023-05-21T03:20:35.134Z,12.02
2023-05-21T03:25:37.665Z,12.75
2023-05-21T03:30:39.669Z,12.93
2023-05-21T03:35:41.413Z,11.70
2023-05-21T03:40:43.813Z,12.95
2023-05-21T03:45:45.629Z,13.18
2023-05-21T03:50:47.438Z,12.77
2023-05-21T03:55:55.410Z,12.25
2023-05-21T04:00:57.653Z,12.55
2023-05-21T04:05:59.459Z,13.20
2023-05-21T04:11:01.266Z,12.95
2023-05-21T04:16:03.224Z,13.43
2023-05-21T04:21:05.215Z,15.00
2023-05-21T04:26:07.764Z,14.25
2023-05-21T04:31:09.659Z,15.10
2023-05-21T04:36:12.355Z,13.80
2023-05-21T04:41:15.104Z,13.65
2023-05-21T04:46:16.876Z,15.95
2023-05-21T04:51:19.232Z,14.10
2023-05-21T04:56:26.559Z,13.88
2023-05-21T05:01:29.853Z,14.18
2023-05-21T05:06:31.820Z,15.85
2023-05-21T05:11:33.592Z,15.57
2023-05-21T05:16:35.713Z,14.93
2023-05-21T05:21:37.883Z,12.60
2023-05-21T05:26:39.701Z,12.93
2023-05-21T05:31:41.501Z,14.43
2023-05-21T05:36:43.385Z,15.50
2023-05-21T05:41:45.160Z,14.38
2023-05-21T05:46:47.365Z,15.57
2023-05-21T05:51:49.096Z,15.88
2023-05-21T05:56:51.202Z,14.48
2023-05-21T06:01:53.115Z,13.73
2023-05-21T06:06:55.241Z,15.30
2023-05-21T06:11:57.108Z,13.35
2023-05-21T06:16:58.951Z,15.38
2023-05-21T06:22:00.897Z,14.20
2023-05-21T06:27:04.059Z,13.57
2023-05-21T06:32:06.655Z,11.40
2023-05-21T06:37:08.426Z,9.65
2023-05-21T06:42:10.240Z,9.07
2023-05-21T06:47:12.119Z,8.13
2023-05-21T06:52:13.896Z,7.95
2023-05-21T06:57:16.493Z,7.20
2023-05-21T07:02:18.314Z,8.15
2023-05-21T07:07:20.130Z,7.35
2023-05-21T07:12:21.872Z,6.65
2023-05-21T07:17:23.869Z,7.40
2023-05-21T07:22:27.945Z,7.20
2023-05-21T07:27:30.265Z,6.50
2023-05-21T07:32:32.266Z,7.40
2023-05-21T07:37:34.168Z,6.57
2023-05-21T07:42:36.055Z,6.68
2023-05-21T07:47:37.929Z,6.30
2023-05-21T07:52:39.735Z,6.85
2023-05-21T07:57:41.848Z,6.30
2023-05-21T08:02:44.009Z,7.57
2023-05-21T08:07:46.333Z,6.35
2023-05-21T08:12:48.053Z,5.82
2023-05-21T08:17:49.924Z,5.38
2023-05-21T08:22:52.046Z,5.60
2023-05-21T08:27:54.220Z,5.38
2023-05-21T08:32:56.165Z,5.47
2023-05-21T08:37:58.737Z,5.38
2023-05-21T08:43:01.669Z,4.68
2023-05-21T08:48:04.650Z,4.85
2023-05-21T08:53:16.073Z,5.90
2023-05-21T08:58:31.798Z,5.60
2023-05-21T09:03:39.371Z,6.00
2023-05-21T09:08:48.566Z,5.15
2023-05-21T09:13:52.516Z,4.63
2023-05-21T09:18:54.687Z,4.80
2023-05-21T09:23:58.307Z,4.47
2023-05-21T09:29:03.813Z,4.75
2023-05-21T09:34:05.624Z,4.90
2023-05-21T09:39:07.751Z,4.72
2023-05-21T09:44:11.330Z,4.93
2023-05-21T09:49:27.990Z,5.88
2023-05-21T09:54:34.939Z,7.95
2023-05-21T09:59:40.839Z,5.88
2023-05-21T10:04:47.554Z,4.70
2023-05-21T10:09:50.025Z,4.75
2023-05-21T10:14:59.709Z,5.07
2023-05-21T10:20:02.949Z,5.07
2023-05-21T10:25:06.999Z,4.40
2023-05-21T10:30:10.142Z,5.22
2023-05-21T10:35:12.955Z,4.90
2023-05-21T10:40:18.156Z,5.35
2023-05-21T10:46:02.204Z,4.88
2023-05-21T10:51:28.331Z,9.15
2023-05-21T10:56:46.496Z,4.55
2023-05-21T11:01:53.147Z,4.60
2023-05-21T11:06:56.537Z,4.45
2023-05-21T11:12:01.371Z,3.53
2023-05-21T11:17:13.940Z,4.05
2023-05-21T11:22:23.064Z,4.22
2023-05-21T11:27:43.445Z,4.45
2023-05-21T11:33:11.355Z,5.30
2023-05-21T11:38:13.265Z,7.15
2023-05-21T11:43:15.116Z,4.80
2023-05-21T11:48:17.652Z,4.88
2023-05-21T11:53:19.724Z,4.68
2023-05-21T11:58:25.245Z,5.57
2023-05-21T12:03:27.536Z,4.00
2023-05-21T12:08:30.564Z,4.55
2023-05-21T12:13:32.889Z,4.47
2023-05-21T12:18:36.262Z,4.68
2023-05-21T12:23:38.216Z,5.00
2023-05-21T12:28:40.713Z,4.72
2023-05-21T12:33:47.401Z,4.82
2023-05-21T12:38:50.295Z,4.60
2023-05-21T12:43:52.233Z,4.45
2023-05-21T12:48:58.386Z,4.93
2023-05-21T12:54:02.278Z,4.60
2023-05-21T12:59:04.064Z,5.03
2023-05-21T13:04:07.954Z,5.15
2023-05-21T13:09:10.242Z,4.78
2023-05-21T13:14:12.017Z,4.50
2023-05-21T13:19:15.351Z,4.78
2023-05-21T13:24:17.269Z,5.30
2023-05-21T13:29:19.124Z,5.85
2023-05-21T13:34:20.940Z,4.90
2023-05-21T13:39:26.773Z,4.40
2023-05-21T13:44:28.927Z,5.03
2023-05-21T13:49:33.886Z,4.88
2023-05-21T13:54:37.089Z,5.22
2023-05-21T13:59:41.746Z,6.10
2023-05-21T14:04:43.597Z,5.95
2023-05-21T14:09:46.100Z,5.82
2023-05-21T14:14:49.875Z,5.70
2023-05-21T14:19:51.884Z,5.70
2023-05-21T14:24:53.729Z,5.97
2023-05-21T14:29:55.665Z,5.40
2023-05-21T14:34:57.705Z,5.72
2023-05-21T14:39:59.650Z,6.22
2023-05-21T14:45:17.058Z,5.65
2023-05-21T14:50:20.616Z,6.55
2023-05-21T14:55:22.801Z,6.18
2023-05-21T15:00:24.897Z,6.38
2023-05-21T15:05:28.309Z,6.20
2023-05-21T15:10:30.401Z,6.55
2023-05-21T15:15:32.548Z,6.45
2023-05-21T15:20:34.625Z,6.07
2023-05-21T15:25:36.787Z,5.95
2023-05-21T15:30:41.744Z,6.18
2023-05-21T15:35:44.512Z,6.63
2023-05-21T15:40:47.680Z,6.18
2023-05-21T15:45:49.421Z,5.88
2023-05-21T15:50:51.275Z,6.10
2023-05-21T15:55:53.043Z,5.78
2023-05-21T16:00:55.242Z,6.82
2023-05-21T16:05:57.046Z,5.93
2023-05-21T16:11:01.140Z,6.22
2023-05-21T16:16:02.906Z,6.78
2023-05-21T16:21:05.187Z,6.68
2023-05-21T16:26:08.125Z,6.60
2023-05-21T16:31:10.894Z,5.90
2023-05-21T16:36:13.166Z,6.35
2023-05-21T16:41:15.334Z,6.60
2023-05-21T16:46:17.225Z,5.07
2023-05-21T16:51:19.123Z,6.50
2023-05-21T16:56:21.917Z,6.28
2023-05-21T17:01:23.928Z,5.88
2023-05-21T17:06:25.860Z,5.85
2023-05-21T17:11:28.159Z,6.28
2023-05-21T17:16:30.008Z,6.15
2023-05-21T17:21:32.012Z,6.35
2023-05-21T17:26:33.995Z,6.43
2023-05-21T17:31:36.585Z,6.85
2023-05-21T17:36:41.568Z,15.35
2023-05-21T17:41:43.439Z,7.13
2023-05-21T17:46:46.435Z,7.32
2023-05-21T17:51:48.590Z,8.32
2023-05-21T17:56:51.124Z,7.30
2023-05-21T18:01:53.128Z,6.22
2023-05-21T18:06:55.913Z,7.13
2023-05-21T18:11:58.355Z,6.50
2023-05-21T18:17:01.308Z,7.38
2023-05-21T18:22:04.418Z,8.13
2023-05-21T18:27:07.059Z,7.82
2023-05-21T18:32:10.945Z,7.72
2023-05-21T18:37:12.756Z,7.68
2023-05-21T18:42:14.956Z,7.72
2023-05-21T18:47:16.863Z,9.10
2023-05-21T18:52:18.750Z,8.90
2023-05-21T18:57:20.554Z,8.73
2023-05-21T19:02:22.443Z,8.00
2023-05-21T19:07:24.324Z,7.95
2023-05-21T19:12:26.475Z,9.05
2023-05-21T19:17:28.368Z,12.88
2023-05-21T19:22:30.229Z,27.55
2023-05-21T19:27:32.118Z,67.20
2023-05-21T19:32:33.941Z,15.13
2023-05-21T19:37:35.717Z,11.15
2023-05-21T19:42:37.882Z,10.05
2023-05-21T19:47:41.119Z,9.60
2023-05-21T19:52:43.127Z,9.10
2023-05-21T19:57:45.239Z,10.25
2023-05-21T20:02:47.244Z,10.02
2023-05-21T20:07:49.043Z,9.27
2023-05-21T20:12:50.812Z,24.92
2023-05-21T20:17:54.115Z,10.10
2023-05-21T20:23:03.260Z,10.20
2023-05-21T20:28:05.604Z,10.32
2023-05-21T20:33:07.418Z,9.48
2023-05-21T20:38:09.244Z,10.68
2023-05-21T20:43:14.972Z,10.60
2023-05-21T20:48:17.100Z,10.68
2023-05-21T20:53:19.480Z,9.48
2023-05-21T20:58:23.812Z,11.57
2023-05-21T21:03:25.640Z,10.77
2023-05-21T21:08:27.824Z,11.15
2023-05-21T21:13:30.000Z,10.00
2023-05-21T21:18:31.815Z,10.57
2023-05-21T21:23:34.171Z,15.00
2023-05-21T21:28:36.425Z,10.73
2023-05-21T21:33:38.320Z,11.48
2023-05-21T21:38:40.180Z,10.75
2023-05-21T21:43:41.955Z,11.32
2023-05-21T21:48:43.826Z,11.15
2023-05-21T21:53:45.618Z,11.55
2023-05-21T21:58:47.506Z,11.93
2023-05-21T22:03:49.246Z,12.15
2023-05-21T22:08:51.514Z,11.90
2023-05-21T22:13:53.871Z,12.18
2023-05-21T22:18:58.107Z,10.90
2023-05-21T22:24:00.348Z,12.45
2023-05-21T22:29:02.172Z,11.93
2023-05-21T22:34:04.372Z,12.30
2023-05-21T22:39:06.202Z,11.23
2023-05-21T22:44:08.078Z,12.20
2023-05-21T22:49:10.443Z,12.77
2023-05-21T22:54:12.513Z,11.80
2023-05-21T22:59:14.250Z,12.85
2023-05-21T23:04:16.512Z,12.50
2023-05-21T23:09:18.353Z,11.38
2023-05-21T23:14:20.364Z,11.82
2023-05-21T23:19:22.209Z,13.02
2023-05-21T23:24:24.107Z,12.18
2023-05-21T23:29:25.890Z,14.38
2023-05-21T23:34:27.765Z,13.15
2023-05-21T23:39:29.818Z,13.20
2023-05-21T23:44:31.639Z,13.77
2023-05-21T23:49:33.592Z,13.00
2023-05-21T23:54:35.474Z,13.68
2023-05-21T23:59:37.422Z,13.68
